Time;durP1;ratioP1;P1;durP2;ratioP2;P2;SDS_P1;SDS_P2;PMS_P1;PMS_P2;Temp;Humidity;BMP_temperature;BMP_pressure;BME280_temperature;BME280_humidity;BME280_pressure;Samples;Min_cycle;Max_cycle;Signal;HPM_P1;HPM_P2
2022/12/27 00:00:33;;;;;;;4.50;1.30;;;6.20;99.90;;;;;;5006845;28;20181;-59
2022/12/27 00:02:58;;;;;;;1.40;1.30;;;6.10;99.90;;;;;;5010004;28;20847;-59
2022/12/27 00:05:24;;;;;;;12.83;1.80;;;6.20;99.90;;;;;;5014351;28;20176;-59
2022/12/27 00:07:50;;;;;;;5.23;1.17;;;6.10;99.90;;;;;;5003619;28;20181;-59
2022/12/27 00:10:15;;;;;;;2.33;1.63;;;6.20;99.90;;;;;;5011399;28;20492;-58
2022/12/27 00:12:41;;;;;;;1.60;1.50;;;6.20;99.90;;;;;;4992155;28;20211;-58
2022/12/27 00:15:07;;;;;;;2.20;1.13;;;6.10;99.90;;;;;;5005662;28;20169;-58
2022/12/27 00:17:33;;;;;;;3.00;1.47;;;6.10;99.90;;;;;;5005967;28;20180;-59
2022/12/27 00:19:58;;;;;;;2.80;1.30;;;6.20;99.90;;;;;;5004675;28;20168;-58
2022/12/27 00:22:24;;;;;;;5.40;1.43;;;6.20;99.90;;;;;;5006989;28;20582;-60
2022/12/27 00:24:50;;;;;;;1.40;1.30;;;6.10;99.90;;;;;;5001336;28;20181;-58
2022/12/27 00:27:15;;;;;;;1.80;1.60;;;6.00;99.90;;;;;;5008901;28;20772;-59
2022/12/27 00:29:41;;;;;;;2.60;2.40;;;6.00;99.90;;;;;;5002072;28;20176;-60
2022/12/27 00:32:07;;;;;;;7.53;2.00;;;5.90;99.90;;;;;;5014345;28;20213;-58
2022/12/27 00:34:33;;;;;;;4.23;1.57;;;5.90;99.90;;;;;;5010569;28;20677;-54
2022/12/27 00:36:58;;;;;;;4.40;1.70;;;5.90;99.90;;;;;;4999717;28;20228;-56
2022/12/27 00:39:24;;;;;;;1.67;1.57;;;5.80;99.90;;;;;;5009509;28;20521;-58
2022/12/27 00:41:50;;;;;;;2.00;1.40;;;5.80;99.90;;;;;;5003697;28;20204;-57
2022/12/27 00:44:16;;;;;;;2.80;1.33;;;5.60;99.90;;;;;;5002924;28;20193;-56
2022/12/27 00:46:42;;;;;;;3.50;1.73;;;5.60;99.90;;;;;;5004895;28;20188;-56
2022/12/27 00:49:07;;;;;;;1.80;1.70;;;5.60;99.90;;;;;;5009879;28;20184;-57
2022/12/27 00:51:33;;;;;;;3.70;1.63;;;5.50;99.90;;;;;;4998818;28;20215;-56
2022/12/27 00:53:59;;;;;;;9.27;1.70;;;5.50;99.90;;;;;;5008676;28;20168;-56
2022/12/27 00:56:27;;;;;;;2.70;1.67;;;5.40;99.90;;;;;;5002139;28;20204;-56
2022/12/27 00:58:58;;;;;;;2.27;1.60;;;5.40;99.90;;;;;;4988210;28;20177;-56
2022/12/27 01:01:26;;;;;;;5.73;1.80;;;5.40;99.90;;;;;;4998722;28;20494;-57
2022/12/27 01:03:52;;;;;;;4.50;1.97;;;5.30;99.90;;;;;;5009016;28;20455;-56
2022/12/27 01:06:21;;;;;;;2.50;1.57;;;5.30;99.90;;;;;;5014801;28;20428;-57
2022/12/27 01:08:47;;;;;;;2.00;1.73;;;5.30;99.90;;;;;;5017133;28;20445;-56
2022/12/27 01:11:15;;;;;;;2.57;1.70;;;5.30;99.90;;;;;;5009180;28;20493;-59
2022/12/27 01:13:42;;;;;;;2.60;1.53;;;5.30;99.90;;;;;;5010922;28;20455;-56
2022/12/27 01:16:09;;;;;;;5.63;2.00;;;5.30;99.90;;;;;;5004412;28;20473;-58
2022/12/27 01:18:35;;;;;;;9.60;2.03;;;5.20;99.90;;;;;;5010407;28;20437;-58
2022/12/27 01:21:09;;;;;;;1.70;1.60;;;5.20;99.90;;;;;;5001415;28;20428;-56
2022/12/27 01:23:35;;;;;;;2.90;1.90;;;5.20;99.90;;;;;;4998163;28;20207;-56
2022/12/27 01:26:04;;;;;;;1.53;1.43;;;5.20;99.90;;;;;;5007279;28;21047;-56
2022/12/27 01:28:30;;;;;;;4.10;1.60;;;5.10;99.90;;;;;;5004014;28;20458;-58
2022/12/27 01:30:55;;;;;;;3.57;2.30;;;5.10;99.90;;;;;;4990256;28;20893;-57
2022/12/27 01:33:22;;;;;;;4.90;1.90;;;5.10;99.90;;;;;;5010160;28;20302;-56
2022/12/27 01:35:47;;;;;;;2.63;1.60;;;5.00;99.90;;;;;;5003860;28;21036;-56
2022/12/27 01:38:13;;;;;;;4.80;1.90;;;5.00;99.90;;;;;;5006355;28;20514;-57
2022/12/27 01:40:39;;;;;;;2.97;1.87;;;5.00;99.90;;;;;;5006426;28;20188;-58
2022/12/27 01:43:05;;;;;;;1.77;1.53;;;5.00;99.90;;;;;;5009069;28;20446;-57
2022/12/27 01:45:35;;;;;;;6.70;1.73;;;5.00;99.90;;;;;;4986380;28;20959;-57
2022/12/27 01:48:12;;;;;;;4.47;2.00;;;5.00;99.90;;;;;;5004138;28;20183;-57
2022/12/27 01:50:53;;;;;;;5.23;1.97;;;5.00;99.90;;;;;;5003870;28;20578;-57
2022/12/27 01:53:29;;;;;;;4.13;1.90;;;5.00;99.90;;;;;;5002471;28;20483;-57
2022/12/27 01:56:03;;;;;;;3.43;1.80;;;4.90;99.90;;;;;;4981829;28;20427;-57
2022/12/27 01:58:28;;;;;;;1.90;1.67;;;4.90;99.90;;;;;;5001843;28;20423;-58
2022/12/27 02:00:55;;;;;;;10.00;1.90;;;4.90;99.90;;;;;;4996178;28;20673;-57
2022/12/27 02:03:34;;;;;;;5.10;1.80;;;4.80;99.90;;;;;;5001830;28;20220;-55
2022/12/27 02:06:03;;;;;;;3.90;1.70;;;4.80;99.90;;;;;;5009931;28;20951;-58
2022/12/27 02:08:54;;;;;;;3.50;1.73;;;4.70;99.90;;;;;;5014936;28;20422;-57
2022/12/27 02:11:49;;;;;;;2.60;1.63;;;4.70;99.90;;;;;;5011541;28;20585;-58
2022/12/27 02:14:12;;;;;;;3.60;2.17;;;4.60;99.90;;;;;;5008793;28;20430;-57
2022/12/27 02:16:38;;;;;;;2.93;1.47;;;4.60;99.90;;;;;;5007838;28;20433;-57
2022/12/27 02:19:13;;;;;;;3.20;1.90;;;4.60;99.90;;;;;;5006972;28;20423;-57
2022/12/27 02:22:15;;;;;;;2.37;1.60;;;4.50;99.90;;;;;;5005232;28;20183;-57
2022/12/27 02:24:59;;;;;;;3.53;2.00;;;4.50;99.90;;;;;;5009357;28;20430;-57
2022/12/27 02:28:04;;;;;;;1.57;1.47;;;4.40;99.90;;;;;;5015982;28;20500;-58
2022/12/27 02:30:33;;;;;;;2.30;1.73;;;4.40;99.90;;;;;;5004112;28;20447;-58
2022/12/27 02:33:05;;;;;;;2.87;2.23;;;4.30;99.90;;;;;;4997120;28;20465;-57
2022/12/27 02:35:42;;;;;;;2.17;1.80;;;4.30;99.90;;;;;;5005409;28;21094;-58
2022/12/27 02:38:13;;;;;;;1.97;1.70;;;4.20;99.90;;;;;;5001215;28;20441;-57
2022/12/27 02:55:24;;;;;;;5.70;1.87;;;3.80;99.90;;;;;;4998952;28;20525;-57
2022/12/27 02:58:11;;;;;;;2.07;1.80;;;3.80;99.90;;;;;;5001314;28;21134;-57
2022/12/27 03:03:53;;;;;;;1.63;1.53;;;3.70;99.90;;;;;;4999507;28;20869;-58
2022/12/27 03:06:40;;;;;;;3.60;1.70;;;3.70;99.90;;;;;;5017533;28;20449;-56
2022/12/27 03:18:06;;;;;;;2.47;1.43;;;3.60;99.90;;;;;;5008380;28;20473;-57
2022/12/27 03:26:05;;;;;;;1.63;1.40;;;3.60;99.90;;;;;;5003700;28;20446;-58
2022/12/27 03:34:34;;;;;;;2.37;1.53;;;3.70;99.90;;;;;;5001307;28;20426;-57
2022/12/27 03:40:37;;;;;;;8.47;1.50;;;3.70;99.90;;;;;;5003323;28;20488;-57
2022/12/27 03:43:15;;;;;;;2.17;1.70;;;3.70;99.90;;;;;;4987887;28;20534;-57
2022/12/27 03:48:54;;;;;;;3.50;2.10;;;3.70;99.90;;;;;;5007386;28;20435;-57
2022/12/27 03:51:22;;;;;;;4.40;2.50;;;3.70;99.90;;;;;;5007520;28;20438;-57
2022/12/27 03:53:52;;;;;;;3.63;1.90;;;3.70;99.90;;;;;;5010867;28;20458;-57
2022/12/27 03:56:18;;;;;;;3.30;2.17;;;3.70;99.90;;;;;;5007235;28;20587;-57
2022/12/27 03:58:44;;;;;;;5.60;2.83;;;3.70;99.90;;;;;;5010972;28;20949;-56
2022/12/27 04:01:09;;;;;;;2.10;1.90;;;3.70;99.90;;;;;;5008050;28;20245;-57
2022/12/27 04:03:35;;;;;;;4.30;2.70;;;3.60;99.90;;;;;;5001231;28;20815;-57
2022/12/27 04:06:01;;;;;;;3.03;2.20;;;3.60;99.90;;;;;;5010713;28;20270;-56
2022/12/27 04:35:47;;;;;;;2.67;2.13;;;3.00;99.90;;;;;;4998837;28;21007;-60
2022/12/27 04:38:13;;;;;;;4.90;2.27;;;3.00;99.90;;;;;;5002299;28;20513;-57
2022/12/27 04:57:17;;;;;;;2.43;1.70;;;2.60;99.90;;;;;;5007234;28;20995;-58
2022/12/27 05:02:26;;;;;;;2.07;1.50;;;2.50;99.90;;;;;;5006177;28;20290;-57
2022/12/27 05:04:52;;;;;;;4.57;1.60;;;2.50;99.90;;;;;;5013017;28;20521;-57
2022/12/27 05:15:36;;;;;;;1.93;1.70;;;2.30;99.90;;;;;;5006673;28;20877;-58
2022/12/27 05:18:02;;;;;;;4.80;1.80;;;2.20;99.90;;;;;;5006144;28;20554;-57
2022/12/27 05:20:28;;;;;;;2.43;1.57;;;2.30;99.90;;;;;;5009024;28;20719;-57
2022/12/27 05:25:42;;;;;;;3.23;1.97;;;2.20;99.90;;;;;;5011504;28;20495;-57
2022/12/27 05:28:10;;;;;;;4.97;1.87;;;2.10;99.90;;;;;;4991266;28;20486;-57
2022/12/27 05:30:39;;;;;;;1.70;1.60;;;2.10;99.90;;;;;;4991906;28;20951;-60
2022/12/27 05:33:05;;;;;;;1.93;1.67;;;2.10;99.90;;;;;;5001284;28;20495;-57
2022/12/27 05:35:33;;;;;;;4.80;1.70;;;2.10;99.90;;;;;;4987118;28;20474;-57
2022/12/27 05:37:59;;;;;;;3.10;1.80;;;2.10;99.90;;;;;;4990484;28;20929;-57
2022/12/27 05:40:25;;;;;;;7.80;1.93;;;2.00;99.90;;;;;;5009058;28;20466;-57
2022/12/27 05:42:51;;;;;;;8.90;1.77;;;2.00;99.90;;;;;;4985428;28;20533;-57
2022/12/27 05:45:17;;;;;;;3.03;1.70;;;2.00;99.90;;;;;;5002437;28;20211;-57
2022/12/27 05:47:43;;;;;;;1.90;1.70;;;2.00;99.90;;;;;;5004539;28;20435;-57
2022/12/27 05:50:09;;;;;;;6.23;3.20;;;1.90;99.90;;;;;;5001801;28;20441;-57
2022/12/27 05:52:35;;;;;;;3.03;1.83;;;1.90;99.90;;;;;;4994552;28;20470;-57
2022/12/27 05:55:01;;;;;;;2.60;1.70;;;1.90;99.90;;;;;;5008578;28;20423;-57
2022/12/27 05:57:27;;;;;;;1.60;1.50;;;1.90;99.90;;;;;;5013577;28;20426;-57
2022/12/27 05:59:52;;;;;;;5.53;1.90;;;1.90;99.90;;;;;;5001133;28;20181;-57
2022/12/27 06:02:18;;;;;;;1.63;1.43;;;1.90;99.90;;;;;;5008577;28;20562;-57
2022/12/27 06:04:44;;;;;;;2.00;1.73;;;1.80;99.90;;;;;;4997622;28;20198;-56
2022/12/27 06:07:10;;;;;;;3.30;2.20;;;1.80;99.90;;;;;;4989183;28;20434;-58
2022/12/27 06:09:36;;;;;;;2.30;1.80;;;1.80;99.90;;;;;;5011180;28;20185;-57
2022/12/27 06:12:02;;;;;;;4.23;1.80;;;1.80;99.90;;;;;;5010437;28;20529;-57
2022/12/27 06:14:28;;;;;;;2.67;2.00;;;1.80;99.90;;;;;;4998319;28;20435;-57
2022/12/27 06:16:53;;;;;;;5.33;1.60;;;1.80;99.90;;;;;;5005385;28;20434;-57
2022/12/27 06:19:19;;;;;;;2.27;1.73;;;1.70;99.90;;;;;;4996498;28;20283;-57
2022/12/27 06:21:45;;;;;;;2.53;1.60;;;1.70;99.90;;;;;;5006515;28;20191;-58
2022/12/27 06:24:11;;;;;;;3.40;1.60;;;1.70;99.90;;;;;;4998320;28;20806;-56
2022/12/27 06:26:37;;;;;;;2.13;1.70;;;1.70;99.90;;;;;;5007678;28;20183;-57
2022/12/27 06:29:02;;;;;;;2.13;1.90;;;1.70;99.90;;;;;;5008935;28;20687;-56
2022/12/27 06:31:28;;;;;;;2.20;2.00;;;1.60;99.90;;;;;;5006248;28;20828;-57
2022/12/27 06:33:54;;;;;;;2.20;2.00;;;1.60;99.90;;;;;;4993664;28;20192;-57
2022/12/27 06:36:23;;;;;;;2.13;1.93;;;1.60;99.90;;;;;;5005318;28;20594;-57
2022/12/27 06:38:49;;;;;;;6.73;2.50;;;1.60;99.90;;;;;;5005945;28;20470;-57
2022/12/27 06:41:17;;;;;;;10.13;6.80;;;1.50;99.90;;;;;;5005609;28;20494;-56
2022/12/27 06:43:43;;;;;;;9.23;6.40;;;1.50;99.90;;;;;;5011228;28;20459;-58
2022/12/27 06:46:12;;;;;;;13.37;6.80;;;1.60;99.90;;;;;;5012716;28;20473;-58
2022/12/27 06:48:37;;;;;;;11.30;6.50;;;1.60;99.90;;;;;;5002576;28;20427;-59
2022/12/27 06:51:08;;;;;;;8.13;4.17;;;1.60;99.90;;;;;;5007327;28;20446;-59
2022/12/27 06:53:37;;;;;;;10.43;5.30;;;1.60;99.90;;;;;;5003286;28;20203;-57
2022/12/27 06:56:10;;;;;;;4.40;3.77;;;1.70;99.90;;;;;;5005734;28;20834;-58
2022/12/27 06:58:36;;;;;;;9.80;3.87;;;1.70;99.90;;;;;;5003928;28;20427;-58
2022/12/27 07:01:11;;;;;;;8.03;4.40;;;1.60;99.90;;;;;;5008685;28;21091;-58
2022/12/27 07:03:37;;;;;;;8.20;5.10;;;1.60;99.90;;;;;;5005010;28;20448;-58
2022/12/27 07:06:04;;;;;;;9.67;5.30;;;1.60;99.90;;;;;;4997425;28;20945;-57
2022/12/27 07:08:30;;;;;;;6.33;3.83;;;1.60;99.90;;;;;;5003218;28;20434;-58
2022/12/27 07:11:05;;;;;;;3.70;3.10;;;1.60;99.90;;;;;;5000097;28;20557;-58
2022/12/27 07:13:40;;;;;;;3.63;3.10;;;1.60;99.90;;;;;;5002773;28;20462;-58
2022/12/27 07:16:08;;;;;;;3.80;3.20;;;1.50;99.90;;;;;;5001837;28;21251;-58
2022/12/27 07:18:34;;;;;;;6.57;3.67;;;1.50;99.90;;;;;;4996926;28;21112;-58
2022/12/27 07:21:21;;;;;;;6.53;3.40;;;1.50;99.90;;;;;;4991221;28;20443;-58
2022/12/27 07:23:47;;;;;;;5.43;3.60;;;1.50;99.90;;;;;;4996207;28;20462;-60
2022/12/27 07:26:21;;;;;;;5.87;3.60;;;1.50;99.90;;;;;;5002656;28;20916;-57
2022/12/27 07:28:48;;;;;;;6.43;3.30;;;1.50;99.90;;;;;;5007856;28;20774;-59
2022/12/27 07:31:16;;;;;;;8.30;3.70;;;1.50;99.90;;;;;;5012708;28;20516;-59
2022/12/27 07:33:43;;;;;;;5.10;3.10;;;1.60;99.90;;;;;;5007175;28;20476;-58
2022/12/27 07:36:13;;;;;;;3.43;3.13;;;1.60;99.90;;;;;;5010885;28;20446;-58
2022/12/27 07:38:38;;;;;;;5.20;2.50;;;1.60;99.90;;;;;;5013552;28;20426;-56
2022/12/27 07:41:04;;;;;;;14.33;4.70;;;1.60;99.90;;;;;;5003796;28;20436;-58
2022/12/27 07:43:32;;;;;;;8.00;3.83;;;1.70;99.90;;;;;;4984409;28;20582;-60
2022/12/27 07:46:11;;;;;;;10.40;3.80;;;1.70;99.90;;;;;;5005774;28;20183;-59
2022/12/27 07:48:37;;;;;;;11.63;3.70;;;1.70;99.90;;;;;;5005876;28;21003;-58
2022/12/27 07:51:03;;;;;;;58.93;5.60;;;1.70;99.90;;;;;;5003061;28;20526;-59
2022/12/27 07:53:29;;;;;;;19.90;4.40;;;1.70;99.90;;;;;;5005004;28;20693;-58
2022/12/27 07:55:55;;;;;;;9.00;3.60;;;1.70;99.90;;;;;;5007506;28;20180;-59
2022/12/27 07:58:20;;;;;;;44.07;5.60;;;1.70;99.90;;;;;;4998686;28;20450;-61
2022/12/27 08:00:48;;;;;;;17.20;4.03;;;1.70;99.90;;;;;;5002363;28;20175;-59
2022/12/27 08:03:14;;;;;;;41.30;4.77;;;1.70;99.90;;;;;;5004944;28;20200;-60
2022/12/27 08:05:51;;;;;;;31.47;4.50;;;1.70;99.90;;;;;;4997634;28;20853;-60
2022/12/27 08:08:21;;;;;;;28.00;4.43;;;1.70;99.90;;;;;;5003131;28;20194;-59
2022/12/27 08:10:47;;;;;;;9.20;3.73;;;1.70;99.90;;;;;;5000682;28;20679;-59
2022/12/27 08:13:13;;;;;;;8.27;3.60;;;1.80;99.90;;;;;;5000086;28;21046;-60
2022/12/27 08:15:40;;;;;;;23.17;4.00;;;1.70;99.90;;;;;;5004900;28;20177;-60
2022/12/27 08:18:06;;;;;;;31.70;4.77;;;1.70;99.90;;;;;;5001686;28;20428;-59
2022/12/27 08:20:32;;;;;;;62.60;4.90;;;1.80;99.90;;;;;;4994983;28;20425;-60
2022/12/27 08:22:58;;;;;;;85.43;7.07;;;1.80;99.90;;;;;;5001513;28;20230;-60
2022/12/27 08:25:24;;;;;;;127.40;8.00;;;1.80;99.90;;;;;;4992136;28;20481;-60
2022/12/27 08:27:49;;;;;;;134.47;8.70;;;1.80;99.90;;;;;;5005118;28;20656;-60
2022/12/27 08:30:15;;;;;;;26.77;4.67;;;1.80;99.90;;;;;;4985815;28;20442;-59
2022/12/27 08:32:41;;;;;;;58.90;5.67;;;1.70;99.90;;;;;;4997979;28;20210;-62
2022/12/27 08:35:07;;;;;;;36.90;4.60;;;1.70;99.90;;;;;;5003472;28;20172;-59
2022/12/27 08:37:32;;;;;;;4.73;3.67;;;1.70;99.90;;;;;;4994220;28;20181;-60
2022/12/27 08:39:58;;;;;;;11.00;3.60;;;1.70;99.90;;;;;;5001821;28;20573;-60
2022/12/27 08:42:24;;;;;;;13.87;4.30;;;1.70;99.90;;;;;;5009299;28;20249;-59
2022/12/27 08:44:50;;;;;;;4.10;3.67;;;1.80;99.90;;;;;;4997621;28;20282;-60
2022/12/27 08:47:15;;;;;;;5.37;3.73;;;1.80;99.90;;;;;;4992419;28;20586;-60
2022/12/27 08:49:41;;;;;;;15.63;4.80;;;1.90;99.90;;;;;;5006234;28;20251;-60
2022/12/27 08:52:06;;;;;;;13.37;5.73;;;1.90;99.90;;;;;;5005511;28;20665;-60
2022/12/27 08:54:32;;;;;;;9.20;5.47;;;1.90;99.90;;;;;;5003264;28;20819;-60
2022/12/27 08:56:58;;;;;;;9.73;5.50;;;1.90;99.90;;;;;;4998678;28;20195;-59
2022/12/27 08:59:23;;;;;;;12.60;7.80;;;2.00;99.90;;;;;;4992698;28;20173;-60
2022/12/27 09:01:49;;;;;;;16.83;9.37;;;2.00;99.90;;;;;;5005645;28;20290;-61
2022/12/27 09:04:14;;;;;;;14.80;7.70;;;2.10;99.90;;;;;;4992770;28;20185;-59
2022/12/27 09:06:41;;;;;;;14.97;8.43;;;2.20;99.90;;;;;;4994088;28;20324;-60
2022/12/27 09:09:06;;;;;;;18.27;8.80;;;2.30;99.90;;;;;;5012214;28;20177;-60
2022/12/27 09:11:33;;;;;;;14.27;8.37;;;2.40;99.90;;;;;;4994343;28;20434;-59
2022/12/27 09:14:01;;;;;;;15.70;9.50;;;2.40;99.90;;;;;;5004627;28;20254;-59
2022/12/27 09:16:28;;;;;;;17.33;9.70;;;2.50;99.90;;;;;;4997353;28;20434;-60
2022/12/27 09:18:56;;;;;;;17.40;9.63;;;2.60;99.90;;;;;;5008227;28;20805;-61
2022/12/27 09:21:23;;;;;;;15.30;9.90;;;2.70;99.90;;;;;;4995474;28;20431;-60
2022/12/27 09:23:50;;;;;;;16.23;8.40;;;2.80;99.90;;;;;;4998223;28;20432;-60
2022/12/27 09:26:21;;;;;;;14.30;8.10;;;2.90;99.90;;;;;;5004021;28;21250;-59
2022/12/27 09:28:48;;;;;;;11.70;6.37;;;2.90;99.90;;;;;;5016950;28;20445;-58
2022/12/27 09:31:14;;;;;;;19.13;5.67;;;3.00;99.90;;;;;;5001144;28;21883;-60
2022/12/27 09:33:41;;;;;;;34.20;7.57;;;3.00;99.90;;;;;;4996380;28;21220;-61
2022/12/27 09:36:11;;;;;;;26.23;8.50;;;2.90;99.90;;;;;;5001227;28;20451;-60
2022/12/27 09:38:37;;;;;;;18.70;8.30;;;2.90;99.90;;;;;;4999462;28;20428;-60
2022/12/27 09:41:12;;;;;;;14.83;8.07;;;2.90;99.90;;;;;;5004219;28;20423;-60
2022/12/27 09:43:43;;;;;;;23.00;7.90;;;2.90;99.90;;;;;;4998972;28;20462;-59
2022/12/27 09:46:25;;;;;;;14.60;7.00;;;2.80;99.90;;;;;;5013547;28;20585;-60
2022/12/27 09:48:53;;;;;;;24.83;7.10;;;2.80;99.90;;;;;;5002126;28;20450;-60
2022/12/27 09:51:26;;;;;;;20.23;6.70;;;2.80;99.90;;;;;;5003526;28;21157;-59
2022/12/27 09:54:05;;;;;;;30.00;7.30;;;2.80;99.90;;;;;;4999663;28;20455;-59
2022/12/27 09:56:33;;;;;;;11.90;5.90;;;2.80;99.90;;;;;;5000445;28;20518;-61
2022/12/27 09:59:28;;;;;;;32.73;8.03;;;2.80;99.90;;;;;;4984257;28;20437;-60
2022/12/27 10:01:54;;;;;;;9.80;6.43;;;2.90;99.90;;;;;;4997819;28;20543;-60
2022/12/27 10:04:19;;;;;;;13.00;6.40;;;2.90;99.90;;;;;;5002907;28;20524;-60
2022/12/27 10:06:48;;;;;;;13.53;7.10;;;2.90;99.90;;;;;;5004043;28;20184;-60
2022/12/27 10:09:35;;;;;;;11.17;6.90;;;2.90;99.90;;;;;;5007800;28;20189;-60
2022/12/27 10:12:07;;;;;;;19.00;7.80;;;2.90;99.90;;;;;;5003655;28;20845;-60
2022/12/27 10:14:48;;;;;;;12.33;8.10;;;3.00;99.90;;;;;;5004167;28;20455;-59
2022/12/27 10:17:36;;;;;;;18.80;8.20;;;3.00;99.90;;;;;;5011105;28;20451;-60
2022/12/27 10:20:03;;;;;;;17.83;7.83;;;3.00;99.90;;;;;;5002132;28;20412;-61
2022/12/27 10:22:39;;;;;;;14.63;6.83;;;3.10;99.90;;;;;;5013490;28;20454;-60
2022/12/27 10:25:12;;;;;;;21.07;7.40;;;3.00;99.90;;;;;;5008888;28;20434;-60
2022/12/27 10:27:38;;;;;;;14.10;7.83;;;3.10;99.90;;;;;;4992381;28;20427;-60
2022/12/27 10:30:15;;;;;;;12.17;8.07;;;3.10;99.90;;;;;;5002228;28;20427;-59
2022/12/27 10:32:41;;;;;;;13.20;7.77;;;3.10;99.90;;;;;;5014431;28;20477;-61
2022/12/27 10:35:12;;;;;;;10.13;6.90;;;3.10;99.90;;;;;;5010976;28;20430;-60
2022/12/27 10:37:37;;;;;;;13.00;7.67;;;3.20;99.90;;;;;;5011479;28;20187;-60
2022/12/27 10:40:44;;;;;;;9.73;6.83;;;3.30;99.90;;;;;;5010568;28;20773;-62
2022/12/27 10:43:21;;;;;;;9.97;6.63;;;3.30;99.90;;;;;;4986714;28;20215;-61
2022/12/27 10:45:46;;;;;;;11.90;6.70;;;3.40;99.90;;;;;;5007915;28;20426;-62
2022/12/27 10:48:19;;;;;;;11.33;7.50;;;3.50;99.90;;;;;;5013813;28;20435;-60
2022/12/27 10:51:09;;;;;;;10.30;7.57;;;3.60;99.90;;;;;;5006279;28;20246;-60
2022/12/27 10:53:44;;;;;;;11.40;7.17;;;3.80;99.90;;;;;;5010785;28;20479;-60
2022/12/27 10:56:34;;;;;;;9.30;6.77;;;3.90;99.90;;;;;;5005670;28;20430;-61
2022/12/27 10:59:14;;;;;;;10.30;7.13;;;4.00;99.90;;;;;;4989832;28;21536;-60
2022/12/27 11:01:40;;;;;;;10.37;6.80;;;4.00;99.90;;;;;;5007675;28;21061;-60
2022/12/27 11:04:15;;;;;;;10.50;6.80;;;4.00;99.90;;;;;;5013486;28;20426;-59
2022/12/27 11:06:41;;;;;;;9.73;6.87;;;4.00;99.90;;;;;;5009492;28;20183;-61
2022/12/27 11:09:32;;;;;;;10.97;6.90;;;4.10;99.90;;;;;;4997371;28;20443;-62
2022/12/27 11:12:23;;;;;;;9.23;6.67;;;4.20;99.90;;;;;;5002245;28;20466;-56
2022/12/27 11:14:56;;;;;;;10.70;6.13;;;4.40;99.90;;;;;;4994562;28;20446;-61
2022/12/27 11:17:50;;;;;;;13.33;7.97;;;4.50;99.90;;;;;;5007490;28;20458;-60
2022/12/27 11:20:25;;;;;;;12.93;8.07;;;4.50;99.90;;;;;;5005515;28;20514;-61
2022/12/27 11:23:11;;;;;;;10.23;7.37;;;4.60;99.90;;;;;;5004363;28;20546;-58
2022/12/27 11:25:56;;;;;;;10.27;6.93;;;4.70;99.90;;;;;;5007513;28;20414;-55
2022/12/27 11:28:25;;;;;;;8.80;6.03;;;4.70;99.90;;;;;;4995699;28;21004;-60
2022/12/27 11:30:56;;;;;;;11.70;7.37;;;4.80;99.90;;;;;;4995044;28;20439;-58
2022/12/27 11:33:51;;;;;;;10.30;6.50;;;4.80;99.90;;;;;;4991875;28;20584;-58
2022/12/27 11:36:39;;;;;;;9.70;5.90;;;4.90;99.90;;;;;;4996561;28;20455;-59
2022/12/27 11:39:06;;;;;;;6.97;5.30;;;4.80;99.90;;;;;;4985307;28;21457;-61
2022/12/27 11:41:53;;;;;;;9.20;6.73;;;4.80;99.90;;;;;;4996553;28;20434;-58
2022/12/27 11:44:27;;;;;;;9.07;5.67;;;4.80;99.90;;;;;;4980885;28;20776;-60
2022/12/27 11:47:14;;;;;;;8.07;5.90;;;4.80;99.90;;;;;;4991533;28;20492;-60
2022/12/27 11:50:19;;;;;;;10.30;7.00;;;4.80;99.90;;;;;;5000196;28;22104;-61
2022/12/27 11:52:58;;;;;;;17.40;10.23;;;4.80;99.90;;;;;;5001627;28;21884;-58
2022/12/27 11:55:45;;;;;;;18.30;11.30;;;4.80;99.90;;;;;;4983677;28;20506;-60
2022/12/27 11:58:25;;;;;;;17.77;9.80;;;4.90;99.90;;;;;;4997529;28;20517;-59
2022/12/27 12:01:11;;;;;;;12.30;7.83;;;5.00;99.90;;;;;;5003700;28;20520;-59
2022/12/27 12:03:43;;;;;;;9.83;6.20;;;5.10;99.90;;;;;;4997275;28;20538;-60
2022/12/27 12:06:27;;;;;;;7.57;5.33;;;5.10;99.90;;;;;;5002827;28;20446;-59
2022/12/27 12:09:05;;;;;;;15.83;7.60;;;5.20;99.90;;;;;;4998474;28;21549;-61
2022/12/27 12:11:40;;;;;;;21.80;9.90;;;5.30;99.90;;;;;;5003201;28;21140;-60
2022/12/27 12:14:06;;;;;;;12.70;7.03;;;5.40;99.90;;;;;;4998815;28;20434;-60
2022/12/27 12:16:59;;;;;;;7.80;4.00;;;5.40;99.90;;;;;;4998765;28;20427;-60
2022/12/27 12:19:34;;;;;;;8.70;4.90;;;5.50;99.90;;;;;;5001599;28;20580;-61
2022/12/27 12:22:30;;;;;;;8.57;4.13;;;5.60;99.90;;;;;;4997428;28;20850;-66
2022/12/27 12:25:21;;;;;;;7.43;5.00;;;5.60;99.90;;;;;;4997819;28;20533;-60
2022/12/27 12:28:25;;;;;;;8.70;5.37;;;5.70;99.90;;;;;;5001371;28;20475;-59
2022/12/27 12:31:15;;;;;;;11.93;5.67;;;5.80;99.90;;;;;;4996160;28;20622;-58
2022/12/27 12:33:46;;;;;;;7.43;4.50;;;5.90;99.90;;;;;;5000215;28;21314;-59
2022/12/27 12:36:30;;;;;;;5.77;3.93;;;6.00;99.90;;;;;;4989907;28;20463;-60
2022/12/27 12:39:31;;;;;;;8.10;5.23;;;6.00;99.90;;;;;;4993828;28;20439;-60
2022/12/27 12:42:21;;;;;;;6.43;4.70;;;6.10;99.90;;;;;;4991973;28;20850;-61
2022/12/27 12:45:25;;;;;;;52.40;7.47;;;6.10;99.90;;;;;;5005472;28;20430;-56
2022/12/27 12:48:19;;;;;;;4.70;3.50;;;6.10;99.90;;;;;;4996098;28;20525;-59
2022/12/27 12:51:03;;;;;;;16.50;5.50;;;6.20;99.90;;;;;;5002300;28;20439;-60
2022/12/27 12:53:57;;;;;;;8.10;5.10;;;6.20;99.90;;;;;;4999246;28;20471;-59
2022/12/27 12:56:32;;;;;;;9.23;5.53;;;6.30;99.90;;;;;;4991443;28;20490;-60
2022/12/27 12:59:19;;;;;;;7.90;4.63;;;6.30;99.90;;;;;;5000611;28;20434;-60
2022/12/27 13:02:11;;;;;;;9.00;5.80;;;6.30;99.90;;;;;;5000398;28;21101;-58
2022/12/27 13:05:00;;;;;;;5.97;3.90;;;6.40;99.90;;;;;;5002943;28;20466;-54
2022/12/27 13:07:33;;;;;;;7.43;2.93;;;6.40;99.90;;;;;;5006540;28;20554;-59
2022/12/27 13:10:26;;;;;;;9.20;3.80;;;6.40;99.90;;;;;;4997745;28;20630;-59
2022/12/27 13:13:23;;;;;;;2.23;2.03;;;6.40;99.90;;;;;;5005889;28;20517;-59
2022/12/27 13:16:18;;;;;;;3.93;2.43;;;6.30;99.90;;;;;;5005522;28;20946;-59
2022/12/27 13:18:48;;;;;;;3.97;2.37;;;6.30;99.90;;;;;;4998326;28;20427;-60
2022/12/27 13:21:38;;;;;;;7.33;2.30;;;6.30;99.90;;;;;;5009289;28;20445;-58
2022/12/27 13:24:39;;;;;;;4.07;2.30;;;6.20;99.90;;;;;;5003561;28;20435;-55
2022/12/27 13:27:07;;;;;;;10.20;2.40;;;6.10;99.90;;;;;;5003833;28;20434;-57
2022/12/27 13:30:21;;;;;;;6.27;2.80;;;6.10;99.90;;;;;;4997924;28;20422;-58
2022/12/27 13:33:05;;;;;;;4.73;2.97;;;6.20;99.90;;;;;;4994063;28;20466;-60
2022/12/27 13:35:58;;;;;;;6.07;3.40;;;6.10;99.90;;;;;;5001769;28;20510;-60
2022/12/27 13:38:57;;;;;;;4.50;3.37;;;6.10;99.90;;;;;;5004541;28;20458;-59
2022/12/27 13:41:43;;;;;;;5.90;4.50;;;6.10;99.90;;;;;;4972393;28;20431;-59
2022/12/27 13:44:25;;;;;;;3.47;2.87;;;6.10;99.90;;;;;;4954622;28;20545;-57
2022/12/27 13:47:28;;;;;;;4.90;3.20;;;6.10;99.90;;;;;;4987385;28;20434;-58
2022/12/27 13:50:15;;;;;;;6.03;3.40;;;6.10;99.90;;;;;;5003089;28;20423;-59
2022/12/27 13:53:19;;;;;;;5.13;3.43;;;6.00;99.90;;;;;;4996890;28;20474;-58
2022/12/27 13:55:53;;;;;;;4.60;3.37;;;6.00;99.90;;;;;;5006007;28;20454;-59
2022/12/27 13:58:41;;;;;;;5.77;2.97;;;6.00;99.90;;;;;;5002032;28;20481;-57
2022/12/27 14:01:27;;;;;;;7.00;3.80;;;5.90;99.90;;;;;;4995754;28;20438;-58
2022/12/27 14:04:27;;;;;;;7.13;3.80;;;5.90;99.90;;;;;;5002230;28;20912;-57
2022/12/27 14:07:20;;;;;;;11.60;5.03;;;5.90;99.90;;;;;;4999310;28;20419;-57
2022/12/27 14:10:20;;;;;;;8.07;4.10;;;5.90;99.90;;;;;;5000565;28;20431;-58
2022/12/27 14:12:55;;;;;;;8.70;4.20;;;5.90;99.90;;;;;;4996965;28;21073;-58
2022/12/27 14:15:26;;;;;;;8.30;4.20;;;5.90;99.90;;;;;;5001830;28;20514;-57
2022/12/27 14:18:13;;;;;;;10.80;5.00;;;5.80;99.90;;;;;;5005995;28;20447;-57
2022/12/27 14:21:00;;;;;;;12.40;4.57;;;5.90;99.90;;;;;;4996442;28;20419;-57
2022/12/27 14:23:26;;;;;;;10.07;5.53;;;5.80;99.90;;;;;;4992053;28;20625;-57
2022/12/27 14:26:29;;;;;;;8.73;4.10;;;5.80;99.90;;;;;;5005050;28;20426;-58
2022/12/27 14:29:00;;;;;;;5.87;4.00;;;5.80;99.90;;;;;;4998448;28;20172;-58
2022/12/27 14:31:45;;;;;;;7.70;4.20;;;5.80;99.90;;;;;;5005663;28;20939;-57
2022/12/27 14:34:26;;;;;;;8.30;5.33;;;5.80;99.90;;;;;;4996054;28;20427;-57
2022/12/27 14:37:17;;;;;;;8.27;3.83;;;5.80;99.90;;;;;;5006057;28;20549;-58
2022/12/27 14:40:10;;;;;;;7.93;3.80;;;5.80;99.90;;;;;;4985180;28;20433;-58
2022/12/27 14:42:55;;;;;;;6.20;3.77;;;5.70;99.90;;;;;;5007015;28;20930;-57
2022/12/27 14:45:21;;;;;;;15.53;6.20;;;5.70;99.90;;;;;;4987166;28;20990;-58
2022/12/27 14:48:14;;;;;;;12.00;5.17;;;5.70;99.90;;;;;;5001727;28;20423;-60
2022/12/27 14:50:51;;;;;;;10.90;4.63;;;5.60;99.90;;;;;;5005198;28;20188;-59
2022/12/27 14:53:35;;;;;;;10.83;5.20;;;5.60;99.90;;;;;;5008707;28;20455;-58
2022/12/27 14:56:16;;;;;;;7.83;5.37;;;5.60;99.90;;;;;;5022390;28;20423;-59
2022/12/27 14:59:12;;;;;;;8.87;5.20;;;5.50;99.90;;;;;;5001598;28;20443;-58
2022/12/27 15:02:05;;;;;;;9.40;5.27;;;5.50;99.90;;;;;;5008062;28;20422;-57
2022/12/27 15:05:09;;;;;;;10.23;7.00;;;5.40;99.90;;;;;;5007516;28;20419;-58
2022/12/27 15:07:46;;;;;;;13.43;9.10;;;5.40;99.90;;;;;;4995515;28;20525;-58
2022/12/27 15:10:22;;;;;;;15.30;7.73;;;5.30;99.90;;;;;;4998021;28;20434;-58